Главная страница
METAR-TAF:

METAR-TAF

Аэропорты :

Минск-1, Белоруссия

широта: 53-51-54N, долгота: 027-32-30E, высота над уровнем моря: 228 м

Текущие метеонаблюдения

Эта сводка был подготовлена 22 минут назад, в 06:00 UTC
Ветер 8 Узел от северо-западный
Температура 14°C
Влажность 88%
Давление 1007 hPa
Видимость 10 км и более
Рассеянная облачность на высоте 1100 фута
Сплошная облачность на высоте 10000 фута

METAR: UMMM 230600Z 32004MPS 9999 BKN011 OVC100 14/12 Q1007 RMK QFE736

Время: 09:22 (06:22 UTC)


TAF: отсутствует

Метеонаблюдения и прогнозы для более 4000 аэропортов (сводки METAR и TAF).

Имеющиеся станции представлены на карте желтыми и красными точками.

Чтобы увидеть название станции, наведите на нее мышь.

Затем щелкните, чтобы увидеть метеонаблюдения и метеопрогнозы.

Управление картой: чтобы увеличить масштаб, щелкните зеленые кнопки с черным крестиком; чтобы уменьшить масштаб, щелкните зеленую кнопку с тире; для просмотра соседних карт щелкайте зеленые стрелки.


METAR-TAF: